Pays
Station

 

Conditions  météo  pour  Aeroporto Internacional Val de Cães (Belém/PA)  -  Brésil    Brésil

  
26 °C
    
 
 

METAR pour Aeroporto Internacional Val de Cães (Belém/PA) :

SBBE 180000Z 11006KT 9999 FEW030 SCT100 26/22 Q1014

 

Voici le bulletin pour Aeroporto Internacional Val de Cães (Belém/PA) - Brésil.
 
Le bulletin a été fait il y a 39 minutes, à 00:00 UTC .
Le vent soufflait à la vitesse de 3.1 mètres par seconde de Est/Sud-est (110°).
 
La température était de 26 °C, avec un point de rosée à 22 °C.
La température ressentie était de 28 °C.
 
La pression atmosphérique était de 1014 hPa.
L'humidité relative était de 78.7%.
 
Il y avait 1 à 2/8ème de nébulosité à une hauteur de 914 mètres et 3 à 4/8ème de nébulosité à une hauteur de 3048 mètres.
 
La visibilité globale était de supérieure à 10 kilomètres.
 

 
 
 

Pays :   A   B   C   D   E   F   G   H   I   J   K   L   M   N   O   P   Q   R   S   T   U   V   W   Y   Z

 

Partenaires :  Info Météo avec Met'info
Météo Marine avec MeteoMarine.net
Infos Site  |  Infos Légales  |  Crédits  |  Confidentialité
Contactez-nous  |  Ajouter aux favoris
© 2013-2018 METAR - Tous droits réservés